Time;durP1;ratioP1;P1;durP2;ratioP2;P2;SDS_P1;SDS_P2;PMS_P1;PMS_P2;Temp;Humidity;BMP_temperature;BMP_pressure;BME280_temperature;BME280_humidity;BME280_pressure;Samples;Min_cycle;Max_cycle;Signal;HPM_P1;HPM_P2
2021/03/18 00:00:09;;;;;;;2.92;0.80;;;4.70;85.90;;;;;;4991979;28;20449;-74
2021/03/18 00:02:34;;;;;;;2.10;0.85;;;4.70;85.90;;;;;;4973858;28;20023;-74
2021/03/18 00:05:00;;;;;;;4.90;1.38;;;4.70;86.00;;;;;;4992048;28;20022;-74
2021/03/18 00:07:26;;;;;;;1.95;1.02;;;4.70;86.00;;;;;;4993609;28;20137;-74
2021/03/18 00:09:51;;;;;;;5.90;1.55;;;4.80;86.00;;;;;;4995564;28;20026;-73
2021/03/18 00:12:17;;;;;;;0.82;0.82;;;4.70;86.00;;;;;;4977997;28;20034;-74
2021/03/18 00:14:43;;;;;;;1.67;0.80;;;4.70;86.10;;;;;;4994700;28;20097;-74
2021/03/18 00:17:08;;;;;;;4.85;1.23;;;4.70;86.10;;;;;;4977703;28;20100;-74
2021/03/18 00:19:34;;;;;;;3.05;1.10;;;4.70;86.10;;;;;;4994353;28;20041;-74
2021/03/18 00:22:00;;;;;;;3.47;1.30;;;4.70;86.10;;;;;;4995178;28;20026;-74
2021/03/18 00:24:25;;;;;;;1.75;0.68;;;4.70;86.10;;;;;;4977708;28;20018;-75
2021/03/18 00:26:51;;;;;;;1.00;0.88;;;4.70;86.20;;;;;;4994600;28;20034;-74
2021/03/18 00:29:16;;;;;;;1.92;0.93;;;4.70;86.20;;;;;;4995230;28;20026;-74
2021/03/18 00:31:42;;;;;;;3.05;0.88;;;4.70;86.20;;;;;;4994970;28;20036;-74
2021/03/18 00:34:08;;;;;;;1.42;1.33;;;4.70;86.20;;;;;;4977808;28;20036;-73
2021/03/18 00:36:33;;;;;;;1.13;0.80;;;4.70;86.10;;;;;;4994262;28;20053;-73
2021/03/18 00:39:00;;;;;;;3.15;0.98;;;4.60;86.10;;;;;;4994871;28;20089;-74
2021/03/18 00:41:26;;;;;;;2.65;1.33;;;4.70;86.00;;;;;;4994879;28;20038;-74
2021/03/18 00:43:52;;;;;;;2.67;0.98;;;4.70;86.00;;;;;;4994274;28;20022;-73
2021/03/18 00:46:21;;;;;;;2.35;0.98;;;4.70;85.90;;;;;;4995044;28;20370;-74
2021/03/18 00:48:46;;;;;;;4.13;1.02;;;4.70;85.90;;;;;;4976501;28;20022;-73
2021/03/18 00:51:15;;;;;;;2.42;1.20;;;4.70;86.00;;;;;;4994886;28;20054;-74
2021/03/18 00:53:43;;;;;;;3.63;1.20;;;4.70;86.00;;;;;;4993982;28;20019;-75
2021/03/18 00:56:18;;;;;;;3.08;0.90;;;4.70;86.10;;;;;;4994514;28;20034;-74
2021/03/18 00:58:45;;;;;;;0.93;0.82;;;4.70;86.00;;;;;;4994003;28;20105;-74
2021/03/18 01:01:13;;;;;;;1.98;1.05;;;4.60;86.00;;;;;;4994657;28;20435;-73
2021/03/18 01:03:41;;;;;;;2.92;1.33;;;4.60;86.20;;;;;;4993933;28;20026;-74
2021/03/18 01:06:18;;;;;;;2.72;1.10;;;4.60;86.20;;;;;;4976850;28;20069;-74
2021/03/18 01:08:43;;;;;;;1.73;0.90;;;4.60;86.10;;;;;;4993861;28;20026;-74
2021/03/18 01:11:10;;;;;;;1.80;0.98;;;4.60;86.10;;;;;;4994325;28;20105;-73
2021/03/18 01:13:37;;;;;;;4.45;1.52;;;4.60;86.00;;;;;;4993772;28;20014;-73
2021/03/18 01:16:08;;;;;;;2.70;1.60;;;4.60;86.00;;;;;;4993798;28;20022;-74
2021/03/18 01:18:48;;;;;;;1.37;1.10;;;4.60;86.00;;;;;;4992934;28;20022;-73
2021/03/18 01:21:16;;;;;;;1.88;1.10;;;4.60;86.00;;;;;;4994267;28;20034;-74
2021/03/18 01:23:42;;;;;;;2.58;1.10;;;4.60;86.00;;;;;;4993473;28;20026;-74
2021/03/18 01:26:09;;;;;;;3.53;1.27;;;4.50;86.00;;;;;;4993792;28;20019;-74
2021/03/18 01:28:36;;;;;;;1.60;1.08;;;4.60;86.00;;;;;;4993478;28;20023;-75
2021/03/18 01:31:04;;;;;;;3.25;1.23;;;4.60;86.00;;;;;;4993954;28;20034;-74
2021/03/18 01:33:31;;;;;;;1.92;0.93;;;4.60;86.00;;;;;;4993647;28;20026;-75
2021/03/18 01:35:58;;;;;;;2.60;1.10;;;4.50;86.00;;;;;;4992986;28;20391;-74
2021/03/18 01:38:24;;;;;;;1.73;1.08;;;4.50;86.00;;;;;;4993724;28;20462;-74
2021/03/18 01:40:50;;;;;;;2.65;1.30;;;4.50;85.90;;;;;;4992841;28;20109;-73
2021/03/18 01:43:15;;;;;;;4.40;1.27;;;4.60;86.00;;;;;;4993869;28;20462;-74
2021/03/18 01:45:41;;;;;;;2.38;1.27;;;4.60;86.00;;;;;;4992769;28;20113;-74
2021/03/18 01:48:08;;;;;;;1.63;1.20;;;4.60;86.00;;;;;;4976164;28;20033;-74
2021/03/18 01:50:36;;;;;;;2.97;1.13;;;4.60;85.90;;;;;;4993181;28;20042;-74
2021/03/18 01:53:03;;;;;;;2.30;1.27;;;4.50;85.90;;;;;;4993562;28;20029;-75
2021/03/18 01:55:36;;;;;;;4.85;1.17;;;4.50;85.80;;;;;;4993250;28;20027;-74
2021/03/18 01:58:03;;;;;;;1.40;1.00;;;4.60;85.80;;;;;;4993479;28;20160;-74
2021/03/18 02:00:29;;;;;;;2.75;1.27;;;4.60;85.80;;;;;;4993338;28;20026;-74
2021/03/18 02:02:56;;;;;;;3.92;1.02;;;4.50;85.80;;;;;;4992725;28;20023;-74
2021/03/18 02:05:22;;;;;;;2.15;1.10;;;4.60;85.90;;;;;;4993381;28;20030;-74
2021/03/18 02:07:51;;;;;;;1.77;1.13;;;4.60;85.80;;;;;;4992966;28;20375;-74
2021/03/18 02:10:17;;;;;;;4.50;1.30;;;4.60;85.80;;;;;;4975824;28;20466;-74
2021/03/18 02:12:43;;;;;;;1.13;1.08;;;4.60;85.80;;;;;;4992777;28;20479;-74
2021/03/18 02:15:10;;;;;;;7.32;1.40;;;4.60;85.80;;;;;;4992836;28;20030;-74
2021/03/18 02:18:05;;;;;;;4.78;1.30;;;4.60;85.90;;;;;;4975025;28;20102;-74
2021/03/18 02:21:08;;;;;;;7.88;1.50;;;4.60;85.80;;;;;;4975724;28;20037;-74
2021/03/18 02:24:03;;;;;;;3.15;1.17;;;4.60;85.80;;;;;;4993031;28;20027;-74
2021/03/18 02:26:56;;;;;;;8.55;1.42;;;4.50;85.80;;;;;;4991643;28;20124;-74
2021/03/18 02:29:28;;;;;;;2.25;1.10;;;4.50;85.90;;;;;;4992299;28;20031;-74
2021/03/18 02:32:27;;;;;;;1.27;1.17;;;4.50;85.80;;;;;;4991944;28;20088;-73
2021/03/18 02:35:27;;;;;;;2.35;1.27;;;4.50;85.80;;;;;;4992266;28;20060;-73
2021/03/18 02:38:05;;;;;;;7.75;1.60;;;4.50;85.70;;;;;;4991735;28;20546;-74
2021/03/18 02:40:36;;;;;;;1.63;1.02;;;4.50;85.80;;;;;;4992738;28;20022;-74
2021/03/18 02:43:06;;;;;;;2.75;1.38;;;4.50;85.80;;;;;;4992746;28;20026;-74
2021/03/18 02:45:54;;;;;;;4.07;1.42;;;4.50;86.00;;;;;;4975137;28;20517;-75
2021/03/18 02:48:26;;;;;;;0.80;0.80;;;4.50;85.90;;;;;;4975453;28;20018;-75
2021/03/18 02:50:54;;;;;;;4.13;1.30;;;4.50;85.90;;;;;;4992264;28;20132;-74
2021/03/18 02:53:23;;;;;;;1.65;1.10;;;4.50;85.90;;;;;;4991257;28;20057;-74
2021/03/18 02:55:51;;;;;;;1.77;1.60;;;4.50;86.00;;;;;;4991878;28;20018;-74
2021/03/18 02:58:21;;;;;;;5.82;1.48;;;4.50;86.00;;;;;;4992436;28;20077;-75
2021/03/18 03:00:49;;;;;;;1.20;0.98;;;4.60;86.00;;;;;;4992491;28;20113;-74
2021/03/18 03:03:16;;;;;;;3.78;1.40;;;4.60;86.00;;;;;;4993013;28;20037;-74
2021/03/18 03:05:49;;;;;;;2.95;1.27;;;4.60;85.80;;;;;;4973990;28;20018;-73
2021/03/18 03:08:16;;;;;;;1.27;1.13;;;4.60;85.80;;;;;;4992298;28;20475;-73
2021/03/18 03:10:43;;;;;;;1.35;1.20;;;4.60;85.70;;;;;;4991546;28;20033;-73
2021/03/18 03:13:09;;;;;;;2.95;1.13;;;4.60;85.80;;;;;;4992268;28;20044;-74
2021/03/18 03:15:36;;;;;;;1.50;1.10;;;4.60;85.80;;;;;;4992349;28;20045;-73
2021/03/18 03:18:07;;;;;;;5.40;1.65;;;4.60;85.80;;;;;;4991324;28;20647;-74
2021/03/18 03:20:33;;;;;;;2.35;1.27;;;4.70;85.80;;;;;;4992328;28;20058;-74
2021/03/18 03:23:02;;;;;;;4.90;1.40;;;4.60;85.90;;;;;;4991346;28;20033;-73
2021/03/18 03:25:28;;;;;;;4.55;1.42;;;4.60;86.00;;;;;;4991879;28;20019;-74
2021/03/18 03:27:54;;;;;;;3.53;1.50;;;4.60;85.90;;;;;;4974138;28;20060;-74
2021/03/18 03:30:22;;;;;;;2.80;1.40;;;4.60;85.90;;;;;;4974680;28;20355;-74
2021/03/18 03:32:48;;;;;;;1.30;1.00;;;4.60;85.80;;;;;;4991508;28;20034;-74
2021/03/18 03:35:15;;;;;;;1.92;1.13;;;4.60;85.80;;;;;;4974711;28;20512;-74
2021/03/18 03:37:42;;;;;;;1.30;1.15;;;4.60;85.80;;;;;;4991852;28;20022;-73
2021/03/18 03:40:11;;;;;;;3.45;1.48;;;4.60;86.00;;;;;;4991830;28;20019;-73
2021/03/18 03:42:37;;;;;;;2.55;1.00;;;4.50;86.10;;;;;;4994780;28;20026;-73
2021/03/18 03:45:09;;;;;;;4.55;1.35;;;4.50;86.10;;;;;;4977713;28;20061;-74
2021/03/18 03:47:35;;;;;;;5.13;1.90;;;4.50;86.20;;;;;;4978411;28;20062;-74
2021/03/18 03:50:02;;;;;;;3.60;1.70;;;4.50;86.20;;;;;;4994714;28;20019;-74
2021/03/18 03:52:36;;;;;;;4.82;1.23;;;4.50;86.10;;;;;;4978296;28;20022;-74
2021/03/18 03:55:46;;;;;;;2.25;1.20;;;4.60;86.10;;;;;;4977768;28;20025;-73
2021/03/18 03:58:32;;;;;;;3.53;1.70;;;4.60;86.00;;;;;;4996008;28;20033;-74
2021/03/18 04:01:02;;;;;;;5.57;1.70;;;4.60;85.80;;;;;;4995157;28;20045;-73
2021/03/18 04:03:30;;;;;;;2.63;1.27;;;4.70;85.80;;;;;;4995399;28;20033;-74
2021/03/18 04:06:00;;;;;;;1.80;1.10;;;4.70;85.60;;;;;;4977296;28;20501;-73
2021/03/18 04:08:28;;;;;;;4.25;1.40;;;4.70;86.20;;;;;;4995017;28;20026;-74
2021/03/18 04:10:57;;;;;;;1.80;1.23;;;4.70;85.60;;;;;;4994826;28;20026;-73
2021/03/18 04:13:26;;;;;;;2.95;1.77;;;4.70;85.70;;;;;;4995301;28;20033;-74
2021/03/18 04:15:52;;;;;;;2.13;1.50;;;4.60;85.70;;;;;;4994829;28;20101;-74
2021/03/18 04:18:20;;;;;;;3.70;1.60;;;4.70;85.90;;;;;;4995241;28;20030;-74
2021/03/18 04:20:47;;;;;;;3.00;1.38;;;4.60;85.90;;;;;;4994658;28;20027;-73
2021/03/18 04:23:15;;;;;;;2.72;1.50;;;4.60;86.00;;;;;;4995277;28;20018;-74
2021/03/18 04:25:42;;;;;;;3.60;1.40;;;4.60;86.10;;;;;;4978199;28;20451;-74
2021/03/18 04:28:10;;;;;;;3.67;1.65;;;4.60;86.80;;;;;;4978060;28;20022;-72
2021/03/18 04:30:39;;;;;;;2.88;1.38;;;4.50;86.10;;;;;;4996051;28;20044;-74
2021/03/18 04:33:05;;;;;;;5.35;1.98;;;4.50;86.20;;;;;;4977057;28;20042;-74
2021/03/18 04:35:32;;;;;;;3.40;1.60;;;4.50;86.20;;;;;;4995194;28;20022;-74
2021/03/18 04:38:02;;;;;;;2.38;1.40;;;4.50;86.20;;;;;;4977001;28;20035;-74
2021/03/18 04:40:29;;;;;;;2.10;1.40;;;4.50;86.30;;;;;;4995403;28;20022;-74
2021/03/18 04:42:56;;;;;;;3.35;1.40;;;4.50;86.30;;;;;;4974976;28;20032;-76
2021/03/18 04:45:27;;;;;;;6.75;1.50;;;4.50;86.20;;;;;;4972695;28;20414;-75
2021/03/18 04:47:53;;;;;;;4.70;1.55;;;4.60;86.20;;;;;;4994213;28;20030;-75
2021/03/18 04:50:22;;;;;;;1.58;1.15;;;4.50;86.20;;;;;;4994522;28;20055;-75
2021/03/18 04:52:48;;;;;;;3.80;2.08;;;4.60;86.20;;;;;;4992730;28;20037;-74
2021/03/18 04:55:17;;;;;;;2.58;1.23;;;4.60;86.20;;;;;;4994683;28;20459;-71
2021/03/18 04:57:45;;;;;;;4.70;1.50;;;4.60;86.30;;;;;;4994691;28;20026;-73
2021/03/18 05:00:13;;;;;;;2.50;1.10;;;4.60;86.20;;;;;;4993996;28;20026;-74
2021/03/18 05:02:42;;;;;;;4.65;1.38;;;4.60;86.10;;;;;;4994231;28;20026;-75
2021/03/18 05:05:11;;;;;;;2.75;1.77;;;4.70;86.00;;;;;;4993946;28;20244;-71
2021/03/18 05:07:38;;;;;;;3.55;1.90;;;4.70;85.90;;;;;;4994142;28;20145;-75
2021/03/18 05:10:07;;;;;;;3.28;1.50;;;4.80;85.80;;;;;;4993668;28;20018;-75
2021/03/18 05:12:33;;;;;;;1.85;1.48;;;4.80;85.70;;;;;;4994662;28;20480;-75
2021/03/18 05:14:59;;;;;;;2.97;1.40;;;4.80;85.60;;;;;;4976273;28;20014;-73
2021/03/18 05:17:25;;;;;;;3.10;1.10;;;4.90;85.50;;;;;;4994147;28;20031;-75
2021/03/18 05:19:51;;;;;;;2.60;1.35;;;4.90;85.40;;;;;;4975912;28;20033;-75
2021/03/18 05:22:17;;;;;;;2.63;1.27;;;4.90;85.30;;;;;;4993691;28;20030;-74
2021/03/18 05:24:44;;;;;;;2.55;1.63;;;4.90;85.30;;;;;;4992122;28;20105;-75
2021/03/18 05:27:10;;;;;;;1.42;1.13;;;5.00;85.40;;;;;;4977942;28;20156;-75
2021/03/18 05:29:36;;;;;;;5.80;2.60;;;5.00;86.00;;;;;;4976244;28;20054;-75
2021/03/18 05:32:01;;;;;;;2.00;1.67;;;5.00;85.40;;;;;;4975837;28;20045;-75
2021/03/18 05:34:27;;;;;;;6.15;2.10;;;5.00;85.50;;;;;;4993612;28;20489;-75
2021/03/18 05:36:53;;;;;;;2.88;1.77;;;4.90;85.70;;;;;;4975562;28;20370;-75
2021/03/18 05:39:19;;;;;;;2.38;1.20;;;4.90;85.70;;;;;;4976441;28;20042;-75
2021/03/18 05:41:46;;;;;;;3.53;1.65;;;4.90;85.90;;;;;;4976265;28;20030;-75
2021/03/18 05:44:12;;;;;;;2.80;1.48;;;4.80;86.10;;;;;;4993213;28;20486;-75
2021/03/18 05:46:40;;;;;;;2.40;1.75;;;4.80;86.10;;;;;;4993389;28;20030;-75
2021/03/18 05:49:06;;;;;;;4.47;1.50;;;4.90;86.00;;;;;;4991137;28;20173;-74
2021/03/18 05:51:36;;;;;;;3.60;1.63;;;4.90;86.00;;;;;;4991152;28;20133;-75
2021/03/18 05:54:03;;;;;;;7.10;2.20;;;4.90;86.00;;;;;;4991345;28;20109;-77
2021/03/18 05:56:30;;;;;;;3.65;1.80;;;4.90;85.90;;;;;;4991777;28;20034;-75
2021/03/18 05:58:56;;;;;;;2.80;2.20;;;4.90;85.90;;;;;;4990862;28;20030;-74
2021/03/18 06:01:21;;;;;;;3.63;2.05;;;4.90;85.90;;;;;;4991074;28;20432;-77
2021/03/18 06:03:47;;;;;;;3.10;1.77;;;4.90;85.80;;;;;;4990735;28;20023;-78
2021/03/18 06:06:15;;;;;;;5.85;2.22;;;4.90;85.90;;;;;;4990593;28;20030;-78
2021/03/18 06:08:42;;;;;;;3.53;2.05;;;4.90;85.90;;;;;;4991043;28;20038;-76
2021/03/18 06:11:09;;;;;;;17.23;2.15;;;4.90;85.90;;;;;;4990306;28;20022;-80
2021/03/18 06:13:37;;;;;;;5.00;2.08;;;4.90;86.00;;;;;;4990352;28;20142;-77
2021/03/18 06:16:04;;;;;;;8.98;1.67;;;4.90;86.00;;;;;;4989489;28;20028;-78
2021/03/18 06:18:30;;;;;;;4.45;1.90;;;4.90;86.10;;;;;;4990350;28;20106;-77
2021/03/18 06:20:56;;;;;;;3.38;1.88;;;4.90;86.10;;;;;;4989636;28;20026;-76
2021/03/18 06:23:22;;;;;;;2.63;1.98;;;4.90;86.20;;;;;;4990318;28;20026;-76
2021/03/18 06:25:49;;;;;;;3.03;1.80;;;4.90;86.20;;;;;;4990582;28;20026;-77
2021/03/18 06:28:27;;;;;;;6.28;1.92;;;4.90;86.20;;;;;;4990534;28;20332;-77
2021/03/18 06:31:15;;;;;;;4.50;2.38;;;4.90;86.30;;;;;;4974631;28;20050;-75
2021/03/18 06:33:46;;;;;;;4.50;2.17;;;4.90;86.20;;;;;;4975164;28;20019;-76
2021/03/18 06:36:32;;;;;;;3.20;1.98;;;5.00;86.20;;;;;;4991527;28;20058;-75
2021/03/18 06:39:10;;;;;;;2.72;1.73;;;5.00;86.00;;;;;;4992014;28;20101;-75
2021/03/18 06:41:40;;;;;;;4.18;2.00;;;5.00;86.00;;;;;;4992790;28;20101;-75
2021/03/18 06:44:25;;;;;;;1.95;1.60;;;5.00;85.80;;;;;;4992026;28;20023;-75
2021/03/18 06:46:52;;;;;;;8.30;2.30;;;5.10;85.80;;;;;;4992625;28;20117;-76
2021/03/18 06:49:19;;;;;;;5.97;2.47;;;5.10;85.80;;;;;;4974547;28;20394;-75
2021/03/18 06:52:03;;;;;;;3.17;2.63;;;5.10;85.70;;;;;;4992045;28;20090;-75
2021/03/18 06:54:33;;;;;;;4.85;1.98;;;5.10;85.80;;;;;;4992622;28;20038;-76
2021/03/18 06:57:00;;;;;;;4.47;1.83;;;5.10;85.80;;;;;;4991864;28;20034;-76
2021/03/18 06:59:31;;;;;;;3.53;1.60;;;5.20;85.70;;;;;;4991209;28;20026;-75
2021/03/18 07:02:10;;;;;;;3.05;1.77;;;5.30;85.60;;;;;;4992033;28;20049;-75
2021/03/18 07:04:52;;;;;;;2.30;1.60;;;5.30;85.50;;;;;;4974829;28;20034;-75
2021/03/18 07:07:20;;;;;;;4.28;1.60;;;5.40;85.50;;;;;;4992026;28;20030;-76
2021/03/18 07:09:47;;;;;;;8.38;1.90;;;5.40;85.40;;;;;;4992055;28;20493;-75
2021/03/18 07:12:24;;;;;;;2.90;1.95;;;5.40;85.40;;;;;;4991627;28;20467;-75
2021/03/18 07:14:52;;;;;;;2.72;1.80;;;5.50;85.40;;;;;;4992941;28;20506;-75
2021/03/18 07:17:27;;;;;;;3.13;1.65;;;5.40;85.40;;;;;;4995000;28;20026;-75
2021/03/18 07:20:21;;;;;;;14.75;2.22;;;5.50;85.40;;;;;;4979376;28;20485;-78
2021/03/18 07:22:55;;;;;;;3.72;1.95;;;5.60;85.30;;;;;;4995295;28;20458;-79
2021/03/18 07:25:25;;;;;;;6.75;2.53;;;5.60;85.10;;;;;;4994640;28;20030;-77
2021/03/18 07:27:53;;;;;;;2.63;1.90;;;5.60;85.00;;;;;;4996205;28;20046;-75
2021/03/18 07:30:37;;;;;;;2.38;1.70;;;5.70;85.10;;;;;;4978210;28;20121;-76
2021/03/18 07:33:04;;;;;;;2.58;1.90;;;5.70;85.00;;;;;;4995196;28;20409;-75
2021/03/18 07:35:31;;;;;;;4.38;1.92;;;5.70;85.00;;;;;;4995982;28;20053;-75
2021/03/18 07:37:57;;;;;;;5.40;2.05;;;5.70;84.90;;;;;;4995947;28;20022;-76
2021/03/18 07:40:25;;;;;;;5.25;1.73;;;5.80;85.00;;;;;;4996662;28;20158;-74
2021/03/18 07:42:52;;;;;;;3.97;2.10;;;5.80;85.00;;;;;;4996019;28;20034;-75
2021/03/18 07:45:23;;;;;;;6.35;2.17;;;5.80;85.00;;;;;;4995356;28;20026;-76
2021/03/18 07:47:49;;;;;;;3.70;1.83;;;5.80;85.00;;;;;;4994366;28;20053;-76
2021/03/18 07:50:18;;;;;;;2.50;1.80;;;5.90;85.10;;;;;;4995021;28;20026;-74
2021/03/18 07:52:46;;;;;;;4.80;2.10;;;5.90;85.10;;;;;;4978707;28;20049;-75
2021/03/18 07:55:17;;;;;;;5.43;2.45;;;5.90;85.00;;;;;;4995468;28;20022;-75
2021/03/18 07:57:44;;;;;;;3.22;1.85;;;5.90;85.10;;;;;;4995657;28;20040;-77
2021/03/18 08:00:16;;;;;;;7.50;2.20;;;5.90;85.10;;;;;;4994698;28;20038;-76
2021/03/18 08:02:41;;;;;;;;;;;6.00;85.10;;;;;;4978112;28;20033;-75
2021/03/18 08:05:08;;;;;;;8.60;1.92;;;5.90;85.60;;;;;;4994436;28;20000;-75
2021/03/18 08:07:44;;;;;;;3.42;1.42;;;6.00;85.10;;;;;;4977840;28;20035;-76
2021/03/18 08:10:22;;;;;;;6.55;2.60;;;6.00;85.10;;;;;;4977333;28;20378;-75
2021/03/18 08:12:52;;;;;;;3.90;1.60;;;6.00;85.20;;;;;;4995473;28;20463;-74
2021/03/18 08:15:25;;;;;;;4.07;2.22;;;6.00;85.40;;;;;;4995056;28;20022;-75
2021/03/18 08:17:55;;;;;;;4.05;1.85;;;6.10;85.50;;;;;;4995679;28;20454;-75
2021/03/18 08:20:40;;;;;;;3.90;2.08;;;6.10;85.50;;;;;;4994874;28;20390;-75
2021/03/18 08:23:23;;;;;;;4.60;1.88;;;6.10;85.50;;;;;;4994655;28;20034;-74
2021/03/18 08:25:55;;;;;;;4.10;2.10;;;6.20;85.60;;;;;;4977878;28;20026;-75
2021/03/18 08:28:59;;;;;;;4.15;1.98;;;6.20;85.70;;;;;;4994813;28;20034;-76
2021/03/18 08:31:31;;;;;;;4.93;2.53;;;6.20;85.70;;;;;;4968479;28;20047;-75
2021/03/18 08:33:58;;;;;;;5.57;1.60;;;6.20;85.80;;;;;;4995147;28;20027;-74
2021/03/18 08:36:31;;;;;;;7.50;2.33;;;6.30;85.70;;;;;;4994618;28;20045;-75
2021/03/18 08:39:07;;;;;;;10.45;2.10;;;6.50;85.60;;;;;;4977128;28;20038;-75
2021/03/18 08:41:46;;;;;;;6.20;2.28;;;6.50;85.30;;;;;;4977495;28;20042;-77
2021/03/18 08:44:26;;;;;;;5.53;2.08;;;6.70;85.30;;;;;;4993950;28;20019;-75
2021/03/18 08:46:59;;;;;;;3.60;1.63;;;6.70;85.10;;;;;;4995235;28;20073;-74
2021/03/18 08:49:37;;;;;;;9.27;1.80;;;6.70;85.10;;;;;;4994437;28;20493;-76
2021/03/18 08:52:17;;;;;;;5.95;2.80;;;6.70;85.30;;;;;;4977973;28;20444;-76
2021/03/18 08:54:48;;;;;;;3.47;1.58;;;6.70;85.40;;;;;;4977424;28;20018;-77
2021/03/18 08:57:27;;;;;;;7.80;2.40;;;6.70;85.60;;;;;;4976648;28;20034;-77
2021/03/18 09:00:05;;;;;;;11.85;2.40;;;6.80;85.80;;;;;;4995053;28;20026;-76
2021/03/18 09:02:35;;;;;;;4.65;1.90;;;6.80;85.70;;;;;;4994693;28;20053;-76
2021/03/18 09:05:05;;;;;;;6.43;1.90;;;6.90;85.60;;;;;;4994762;28;20022;-75
2021/03/18 09:07:32;;;;;;;5.03;2.53;;;7.00;85.50;;;;;;4995097;28;20032;-75
2021/03/18 09:10:24;;;;;;;4.63;1.85;;;7.10;85.50;;;;;;4994935;28;20030;-77
2021/03/18 09:12:56;;;;;;;6.25;2.47;;;7.10;85.40;;;;;;4994733;28;20478;-76
2021/03/18 09:15:32;;;;;;;4.32;2.00;;;7.10;86.10;;;;;;4994098;28;20441;-75
2021/03/18 09:18:00;;;;;;;9.57;2.45;;;7.30;85.60;;;;;;4976596;28;20169;-76
2021/03/18 09:20:31;;;;;;;6.20;3.22;;;7.20;85.50;;;;;;4976102;28;20283;-77
2021/03/18 09:23:09;;;;;;;6.25;2.63;;;7.30;85.40;;;;;;4976851;28;20077;-76
2021/03/18 09:25:34;;;;;;;14.93;2.65;;;7.40;85.30;;;;;;4994191;28;20352;-76
2021/03/18 09:28:00;;;;;;;6.15;2.28;;;7.50;85.10;;;;;;4994005;28;20022;-77
2021/03/18 09:30:32;;;;;;;4.22;2.20;;;7.60;84.90;;;;;;4994223;28;20019;-77
2021/03/18 09:32:59;;;;;;;4.22;1.95;;;7.70;84.80;;;;;;4995178;28;20030;-77
2021/03/18 09:35:26;;;;;;;5.38;1.90;;;7.70;84.70;;;;;;4977060;28;20014;-75
2021/03/18 09:37:52;;;;;;;6.32;2.53;;;7.80;84.60;;;;;;4994301;28;20026;-78
2021/03/18 09:40:29;;;;;;;8.13;2.60;;;7.90;84.50;;;;;;4993012;28;20030;-77
2021/03/18 09:42:55;;;;;;;5.18;2.65;;;7.90;84.50;;;;;;4976980;28;20462;-76
2021/03/18 09:45:20;;;;;;;7.18;2.30;;;7.90;84.50;;;;;;4975728;28;20057;-76
2021/03/18 09:47:49;;;;;;;7.43;3.00;;;7.90;84.50;;;;;;4993683;28;20466;-76
2021/03/18 09:50:15;;;;;;;6.80;3.03;;;8.00;84.50;;;;;;4993053;28;20023;-76
2021/03/18 09:52:41;;;;;;;11.60;2.50;;;8.00;84.60;;;;;;4993872;28;20054;-76
2021/03/18 09:55:12;;;;;;;5.47;2.83;;;8.00;84.70;;;;;;4976174;28;20077;-76
2021/03/18 09:57:38;;;;;;;;;;;8.00;84.70;;;;;;4994128;28;20459;-77
2021/03/18 10:00:05;;;;;;;7.18;2.33;;;7.90;84.70;;;;;;4975958;28;19921;-76
2021/03/18 10:02:31;;;;;;;9.45;3.67;;;7.90;85.30;;;;;;4993039;28;20083;-77
2021/03/18 10:04:57;;;;;;;7.70;2.53;;;8.00;84.70;;;;;;4975692;28;20046;-75
2021/03/18 10:07:28;;;;;;;4.38;1.63;;;8.00;84.70;;;;;;4992748;28;20463;-74
2021/03/18 10:09:54;;;;;;;5.63;1.92;;;8.10;84.60;;;;;;4993483;28;20100;-74
2021/03/18 10:12:21;;;;;;;5.97;2.30;;;8.10;85.10;;;;;;4974986;28;20063;-75
2021/03/18 10:14:53;;;;;;;8.13;2.22;;;8.00;84.50;;;;;;4975633;28;20092;-75
2021/03/18 10:17:26;;;;;;;3.95;1.95;;;8.00;84.60;;;;;;4992291;28;20101;-75
2021/03/18 10:20:00;;;;;;;3.92;1.85;;;8.00;84.80;;;;;;4993271;28;20022;-77
2021/03/18 10:22:32;;;;;;;8.43;1.92;;;8.00;84.80;;;;;;4992282;28;20026;-75
2021/03/18 10:25:02;;;;;;;13.48;2.97;;;8.00;84.70;;;;;;4975290;28;20541;-74
2021/03/18 10:27:33;;;;;;;9.38;2.63;;;8.10;84.80;;;;;;4992284;28;20026;-74
2021/03/18 10:30:08;;;;;;;8.38;2.50;;;8.10;84.70;;;;;;4992303;28;20382;-76
2021/03/18 10:32:35;;;;;;;8.82;2.35;;;8.20;84.40;;;;;;4992018;28;20378;-74
2021/03/18 10:35:01;;;;;;;7.07;1.80;;;8.30;84.30;;;;;;4974724;28;20030;-75
2021/03/18 10:37:33;;;;;;;4.85;2.20;;;8.40;84.10;;;;;;4992017;28;20070;-75
2021/03/18 10:40:34;;;;;;;3.25;1.70;;;8.50;83.90;;;;;;4992657;28;20135;-77
2021/03/18 10:43:00;;;;;;;11.57;3.45;;;8.60;83.80;;;;;;4962114;28;20039;-75
2021/03/18 10:45:34;;;;;;;11.80;2.55;;;8.70;83.50;;;;;;4992128;28;20053;-75
2021/03/18 10:48:07;;;;;;;6.68;2.33;;;8.80;83.10;;;;;;4975592;28;20501;-74
2021/03/18 10:50:35;;;;;;;9.68;3.47;;;9.00;82.90;;;;;;4991265;28;20746;-76
2021/03/18 10:53:10;;;;;;;3.55;1.58;;;9.10;82.70;;;;;;4991787;28;20512;-76
2021/03/18 10:55:39;;;;;;;6.55;2.20;;;9.20;82.50;;;;;;4990416;28;20122;-74
2021/03/18 10:58:16;;;;;;;7.50;2.17;;;9.20;82.60;;;;;;4992272;28;20038;-77
2021/03/18 11:00:42;;;;;;;5.65;1.85;;;9.20;82.70;;;;;;4991288;28;20042;-76
2021/03/18 11:03:11;;;;;;;6.20;1.50;;;9.30;82.60;;;;;;4974745;28;20023;-78
2021/03/18 11:05:41;;;;;;;11.90;2.00;;;9.30;82.40;;;;;;4974160;28;20018;-79
2021/03/18 11:08:08;;;;;;;10.55;1.50;;;9.40;82.40;;;;;;4975034;28;20031;-81
2021/03/18 11:10:45;;;;;;;3.67;1.50;;;9.40;82.10;;;;;;4991880;28;20026;-81
2021/03/18 11:13:13;;;;;;;4.07;1.50;;;9.60;81.80;;;;;;4992405;28;20385;-80
2021/03/18 11:15:48;;;;;;;4.95;1.45;;;9.70;81.50;;;;;;4991925;28;20073;-81
2021/03/18 11:18:15;;;;;;;3.30;1.40;;;9.90;81.10;;;;;;5000653;28;20039;-82
2021/03/18 11:20:43;;;;;;;3.08;1.48;;;9.90;80.80;;;;;;5004007;28;20105;-80
2021/03/18 11:23:09;;;;;;;7.20;1.55;;;10.00;80.40;;;;;;4995180;28;20089;-83
2021/03/18 11:25:35;;;;;;;2.03;1.05;;;10.00;80.30;;;;;;4975635;28;20241;-80
2021/03/18 11:28:01;;;;;;;5.43;1.65;;;9.90;80.20;;;;;;4960907;28;20038;-80
2021/03/18 11:30:35;;;;;;;3.78;1.63;;;9.90;80.30;;;;;;4975688;28;20022;-80
2021/03/18 11:33:12;;;;;;;6.45;1.80;;;9.80;80.10;;;;;;4992854;28;20061;-80
2021/03/18 11:35:39;;;;;;;7.50;2.08;;;9.70;80.30;;;;;;4990156;28;20023;-80
2021/03/18 11:38:06;;;;;;;4.93;1.83;;;9.60;80.70;;;;;;4991909;28;20040;-80
2021/03/18 11:40:32;;;;;;;5.20;1.63;;;9.60;80.80;;;;;;4991348;28;20393;-81
2021/03/18 11:42:57;;;;;;;7.78;1.73;;;9.50;80.70;;;;;;4992001;28;20030;-80
2021/03/18 11:45:23;;;;;;;4.43;1.40;;;9.50;80.60;;;;;;4991566;28;20060;-81
2021/03/18 11:47:49;;;;;;;3.63;1.70;;;9.50;80.50;;;;;;4992447;28;20034;-80
2021/03/18 11:50:15;;;;;;;2.60;1.10;;;9.50;80.50;;;;;;4974705;28;20043;-80
2021/03/18 11:52:40;;;;;;;3.60;1.67;;;9.50;80.40;;;;;;4973904;28;20042;-81
2021/03/18 11:55:07;;;;;;;3.63;1.63;;;9.60;80.30;;;;;;4992207;28;20026;-79
2021/03/18 11:57:32;;;;;;;3.25;1.10;;;9.50;80.00;;;;;;4973986;28;20026;-80
2021/03/18 11:59:58;;;;;;;6.93;3.05;;;9.50;80.10;;;;;;4974601;28;20117;-80
2021/03/18 12:02:24;;;;;;;7.80;2.80;;;9.60;80.00;;;;;;4975003;28;20425;-79
2021/03/18 12:04:49;;;;;;;2.67;1.55;;;9.60;79.60;;;;;;4995686;28;20458;-81
2021/03/18 12:07:15;;;;;;;4.85;2.10;;;9.70;79.30;;;;;;4995815;28;20023;-81
2021/03/18 12:09:41;;;;;;;4.13;1.38;;;9.70;79.20;;;;;;4977655;28;20023;-81
2021/03/18 12:12:08;;;;;;;3.30;1.50;;;9.70;79.00;;;;;;4995644;28;20023;-81
2021/03/18 12:14:34;;;;;;;1.88;1.38;;;9.80;79.00;;;;;;4977565;28;20076;-80
2021/03/18 12:17:00;;;;;;;5.22;1.20;;;9.70;78.70;;;;;;4995206;28;20359;-80
2021/03/18 12:19:25;;;;;;;3.05;1.10;;;9.60;78.90;;;;;;4995136;28;20053;-80
2021/03/18 12:21:51;;;;;;;3.97;1.20;;;9.60;79.00;;;;;;4978077;28;20157;-80
2021/03/18 12:24:16;;;;;;;3.42;1.23;;;9.70;78.80;;;;;;4995215;28;20378;-80
2021/03/18 12:26:42;;;;;;;2.60;1.10;;;9.60;78.40;;;;;;4994946;28;20132;-81
2021/03/18 12:29:08;;;;;;;1.58;1.05;;;9.60;78.50;;;;;;4980168;28;20018;-81
2021/03/18 12:31:34;;;;;;;6.88;3.45;;;9.60;78.50;;;;;;4978052;28;20104;-81
2021/03/18 12:33:59;;;;;;;1.92;1.00;;;9.60;78.60;;;;;;4978091;28;20074;-81
2021/03/18 12:36:25;;;;;;;5.57;1.20;;;9.70;78.60;;;;;;4994577;28;20105;-80
2021/03/18 12:38:51;;;;;;;3.03;1.00;;;9.70;78.50;;;;;;4995203;28;20033;-80
2021/03/18 12:41:17;;;;;;;3.17;1.20;;;9.70;78.20;;;;;;4995096;28;20053;-80
2021/03/18 12:43:43;;;;;;;5.68;1.98;;;9.70;78.20;;;;;;4976979;28;20348;-79
2021/03/18 12:46:08;;;;;;;1.35;0.90;;;9.80;78.30;;;;;;4995065;28;20025;-80
2021/03/18 12:48:34;;;;;;;2.28;0.80;;;9.90;78.00;;;;;;4993819;28;20113;-80
2021/03/18 12:50:59;;;;;;;5.38;1.08;;;10.00;77.80;;;;;;4994461;28;20050;-80
2021/03/18 12:53:26;;;;;;;3.67;1.02;;;10.10;77.60;;;;;;4994224;28;20037;-80
2021/03/18 12:55:53;;;;;;;4.93;1.15;;;10.10;77.40;;;;;;4976981;28;20121;-80
2021/03/18 12:58:19;;;;;;;5.43;0.90;;;10.20;77.30;;;;;;4994556;28;20070;-80
2021/03/18 13:00:45;;;;;;;6.68;1.40;;;10.20;77.10;;;;;;4994434;28;20030;-81
2021/03/18 13:03:10;;;;;;;2.30;1.02;;;10.20;77.20;;;;;;4977125;28;20029;-80
2021/03/18 13:05:36;;;;;;;6.63;1.20;;;10.30;77.20;;;;;;4994183;28;20053;-79
2021/03/18 13:08:03;;;;;;;6.03;1.45;;;10.30;77.00;;;;;;4977031;28;20031;-81
2021/03/18 13:10:28;;;;;;;3.13;0.90;;;10.30;76.80;;;;;;4976570;28;20470;-81